West Ferrisburgh, Vermont
Current Conditions -  °F | °C
As of 5:15 PM on Friday 24 Oct 2014 (Local Time) from K6B0 Reporting Station
Overcast Overcast  
Wind Chill: 42°   Ceiling: 1600
Heat Index: 46°   Visibility: 10mi
Dew Point: 44°   Wind: 6mph
Humidity: 95%   Direction: 350°N
Pressure: 29.82"   Gusts: NA
Location:  44.0804°N, 73.3324°W
Report Text: K6B0 242115Z AUTO 35005KT 10SM OVC016 08/07 A2982 RMK AO2 T00750068
Loading
Personal Weather Stations






























Interactive Weather Map
Tropical Storm Tracking
New forecast layout! Learn more

10-Day Weather Forecast

Advertisements
Track Severe Weather on mobile